sensor_id;sensor_type;location;lat;lon;timestamp;P1;durP1;ratioP1;P2;durP2;ratioP2
55641;SDS011;41509;53.108;6.100;2023-04-01T00:02:48;5.28;;;2.80;;
55641;SDS011;41509;53.108;6.100;2023-04-01T00:05:16;4.25;;;2.78;;
55641;SDS011;41509;53.108;6.100;2023-04-01T00:07:44;3.65;;;2.38;;
55641;SDS011;41509;53.108;6.100;2023-04-01T00:10:11;4.25;;;2.60;;
55641;SDS011;41509;53.108;6.100;2023-04-01T00:12:38;4.97;;;2.83;;
55641;SDS011;41509;53.108;6.100;2023-04-01T00:15:05;4.78;;;2.65;;
55641;SDS011;41509;53.108;6.100;2023-04-01T00:17:33;4.88;;;2.60;;
55641;SDS011;41509;53.108;6.100;2023-04-01T00:19:59;4.03;;;2.60;;
55641;SDS011;41509;53.108;6.100;2023-04-01T00:22:25;4.27;;;2.80;;
55641;SDS011;41509;53.108;6.100;2023-04-01T00:24:54;5.68;;;2.88;;
55641;SDS011;41509;53.108;6.100;2023-04-01T00:27:23;4.45;;;2.78;;
55641;SDS011;41509;53.108;6.100;2023-04-01T00:29:48;3.80;;;2.45;;
55641;SDS011;41509;53.108;6.100;2023-04-01T00:32:14;3.90;;;2.47;;
55641;SDS011;41509;53.108;6.100;2023-04-01T00:34:39;5.77;;;3.10;;
55641;SDS011;41509;53.108;6.100;2023-04-01T00:37:06;5.63;;;2.83;;
55641;SDS011;41509;53.108;6.100;2023-04-01T00:39:36;4.75;;;2.95;;
55641;SDS011;41509;53.108;6.100;2023-04-01T00:42:02;4.43;;;2.90;;
55641;SDS011;41509;53.108;6.100;2023-04-01T00:46:56;4.55;;;2.78;;
55641;SDS011;41509;53.108;6.100;2023-04-01T00:49:22;5.63;;;2.88;;
55641;SDS011;41509;53.108;6.100;2023-04-01T00:51:51;4.95;;;2.90;;
55641;SDS011;41509;53.108;6.100;2023-04-01T00:54:21;5.25;;;3.22;;
55641;SDS011;41509;53.108;6.100;2023-04-01T00:56:54;6.53;;;3.25;;
55641;SDS011;41509;53.108;6.100;2023-04-01T00:59:34;4.93;;;3.17;;
55641;SDS011;41509;53.108;6.100;2023-04-01T01:02:04;4.95;;;3.10;;
55641;SDS011;41509;53.108;6.100;2023-04-01T01:04:34;7.05;;;3.33;;
55641;SDS011;41509;53.108;6.100;2023-04-01T01:15:14;6.65;;;3.05;;
55641;SDS011;41509;53.108;6.100;2023-04-01T01:18:09;7.53;;;2.90;;
55641;SDS011;41509;53.108;6.100;2023-04-01T01:23:23;3.97;;;2.38;;
55641;SDS011;41509;53.108;6.100;2023-04-01T01:29:04;4.78;;;2.67;;
55641;SDS011;41509;53.108;6.100;2023-04-01T01:37:24;5.10;;;2.97;;
55641;SDS011;41509;53.108;6.100;2023-04-01T01:39:55;6.15;;;3.25;;
55641;SDS011;41509;53.108;6.100;2023-04-01T01:42:25;5.32;;;3.00;;
55641;SDS011;41509;53.108;6.100;2023-04-01T01:44:53;4.75;;;3.00;;
55641;SDS011;41509;53.108;6.100;2023-04-01T01:47:21;6.57;;;3.08;;
55641;SDS011;41509;53.108;6.100;2023-04-01T01:49:48;5.28;;;3.10;;
55641;SDS011;41509;53.108;6.100;2023-04-01T01:52:16;4.18;;;2.88;;
55641;SDS011;41509;53.108;6.100;2023-04-01T01:54:53;5.57;;;2.95;;
55641;SDS011;41509;53.108;6.100;2023-04-01T01:59:59;3.80;;;2.28;;
55641;SDS011;41509;53.108;6.100;2023-04-01T02:02:38;5.22;;;2.50;;
55641;SDS011;41509;53.108;6.100;2023-04-01T02:05:09;4.80;;;3.00;;
55641;SDS011;41509;53.108;6.100;2023-04-01T02:07:41;5.13;;;2.88;;
55641;SDS011;41509;53.108;6.100;2023-04-01T02:10:12;6.13;;;2.90;;
55641;SDS011;41509;53.108;6.100;2023-04-01T02:12:38;6.57;;;3.13;;
55641;SDS011;41509;53.108;6.100;2023-04-01T02:17:35;5.32;;;2.92;;
55641;SDS011;41509;53.108;6.100;2023-04-01T02:20:07;5.72;;;3.67;;
55641;SDS011;41509;53.108;6.100;2023-04-01T02:22:40;6.80;;;3.72;;
55641;SDS011;41509;53.108;6.100;2023-04-01T02:25:13;5.88;;;3.40;;
55641;SDS011;41509;53.108;6.100;2023-04-01T02:27:40;5.72;;;3.20;;
55641;SDS011;41509;53.108;6.100;2023-04-01T02:30:09;5.70;;;3.20;;
55641;SDS011;41509;53.108;6.100;2023-04-01T02:32:36;6.85;;;3.90;;
55641;SDS011;41509;53.108;6.100;2023-04-01T02:35:07;5.50;;;3.78;;
55641;SDS011;41509;53.108;6.100;2023-04-01T02:37:35;5.93;;;3.30;;
55641;SDS011;41509;53.108;6.100;2023-04-01T02:40:03;4.97;;;3.13;;
55641;SDS011;41509;53.108;6.100;2023-04-01T02:42:31;6.85;;;3.20;;
55641;SDS011;41509;53.108;6.100;2023-04-01T02:44:57;5.43;;;3.03;;
55641;SDS011;41509;53.108;6.100;2023-04-01T02:47:22;6.23;;;3.33;;
55641;SDS011;41509;53.108;6.100;2023-04-01T02:49:48;5.43;;;3.27;;
55641;SDS011;41509;53.108;6.100;2023-04-01T02:52:14;5.63;;;3.43;;
55641;SDS011;41509;53.108;6.100;2023-04-01T02:54:42;5.03;;;3.13;;
55641;SDS011;41509;53.108;6.100;2023-04-01T02:57:08;6.10;;;2.90;;
55641;SDS011;41509;53.108;6.100;2023-04-01T02:59:33;5.80;;;3.23;;
55641;SDS011;41509;53.108;6.100;2023-04-01T03:01:59;7.83;;;3.07;;
55641;SDS011;41509;53.108;6.100;2023-04-01T03:04:25;5.70;;;3.20;;
55641;SDS011;41509;53.108;6.100;2023-04-01T03:06:50;5.57;;;3.30;;
55641;SDS011;41509;53.108;6.100;2023-04-01T03:09:18;5.00;;;3.00;;
55641;SDS011;41509;53.108;6.100;2023-04-01T03:11:44;6.10;;;3.60;;
55641;SDS011;41509;53.108;6.100;2023-04-01T03:14:10;6.87;;;3.70;;
55641;SDS011;41509;53.108;6.100;2023-04-01T03:16:35;6.63;;;3.90;;
55641;SDS011;41509;53.108;6.100;2023-04-01T03:19:01;6.37;;;3.20;;
55641;SDS011;41509;53.108;6.100;2023-04-01T03:21:27;7.63;;;3.80;;
55641;SDS011;41509;53.108;6.100;2023-04-01T03:23:52;8.13;;;3.95;;
55641;SDS011;41509;53.108;6.100;2023-04-01T03:26:18;8.37;;;4.03;;
55641;SDS011;41509;53.108;6.100;2023-04-01T03:28:44;5.85;;;3.50;;
55641;SDS011;41509;53.108;6.100;2023-04-01T03:31:10;6.50;;;3.80;;
55641;SDS011;41509;53.108;6.100;2023-04-01T03:33:36;7.07;;;3.88;;
55641;SDS011;41509;53.108;6.100;2023-04-01T03:36:02;7.85;;;4.60;;
55641;SDS011;41509;53.108;6.100;2023-04-01T03:38:31;7.53;;;3.83;;
55641;SDS011;41509;53.108;6.100;2023-04-01T03:40:58;10.88;;;4.78;;
55641;SDS011;41509;53.108;6.100;2023-04-01T03:43:25;7.18;;;3.85;;
55641;SDS011;41509;53.108;6.100;2023-04-01T03:45:51;8.60;;;4.45;;
55641;SDS011;41509;53.108;6.100;2023-04-01T03:48:17;6.57;;;3.97;;
55641;SDS011;41509;53.108;6.100;2023-04-01T03:50:46;7.30;;;4.20;;
55641;SDS011;41509;53.108;6.100;2023-04-01T03:53:12;7.60;;;4.53;;
55641;SDS011;41509;53.108;6.100;2023-04-01T03:55:38;8.27;;;4.28;;
55641;SDS011;41509;53.108;6.100;2023-04-01T03:58:07;7.45;;;4.20;;
55641;SDS011;41509;53.108;6.100;2023-04-01T04:00:32;7.55;;;4.38;;
55641;SDS011;41509;53.108;6.100;2023-04-01T04:02:59;7.90;;;4.35;;
55641;SDS011;41509;53.108;6.100;2023-04-01T04:05:27;6.70;;;4.00;;
55641;SDS011;41509;53.108;6.100;2023-04-01T04:07:53;6.33;;;4.10;;
55641;SDS011;41509;53.108;6.100;2023-04-01T04:10:19;8.27;;;4.75;;
55641;SDS011;41509;53.108;6.100;2023-04-01T04:12:45;8.88;;;4.25;;
55641;SDS011;41509;53.108;6.100;2023-04-01T04:15:11;8.37;;;4.43;;
55641;SDS011;41509;53.108;6.100;2023-04-01T04:17:37;10.48;;;4.97;;
55641;SDS011;41509;53.108;6.100;2023-04-01T04:20:03;9.73;;;5.15;;
55641;SDS011;41509;53.108;6.100;2023-04-01T04:22:29;8.27;;;4.60;;
55641;SDS011;41509;53.108;6.100;2023-04-01T04:24:55;7.93;;;4.60;;
55641;SDS011;41509;53.108;6.100;2023-04-01T04:27:20;9.03;;;4.67;;
55641;SDS011;41509;53.108;6.100;2023-04-01T04:29:46;9.80;;;4.83;;
55641;SDS011;41509;53.108;6.100;2023-04-01T04:32:11;8.43;;;4.30;;
55641;SDS011;41509;53.108;6.100;2023-04-01T04:34:37;9.80;;;5.20;;
55641;SDS011;41509;53.108;6.100;2023-04-01T04:37:03;8.10;;;4.37;;
55641;SDS011;41509;53.108;6.100;2023-04-01T04:39:29;9.05;;;5.13;;
55641;SDS011;41509;53.108;6.100;2023-04-01T04:41:55;8.35;;;4.50;;
55641;SDS011;41509;53.108;6.100;2023-04-01T04:44:20;10.63;;;4.75;;
55641;SDS011;41509;53.108;6.100;2023-04-01T04:46:46;8.65;;;4.88;;
55641;SDS011;41509;53.108;6.100;2023-04-01T04:49:12;7.63;;;4.73;;
55641;SDS011;41509;53.108;6.100;2023-04-01T04:51:38;11.70;;;5.80;;
55641;SDS011;41509;53.108;6.100;2023-04-01T04:54:04;11.00;;;6.03;;
55641;SDS011;41509;53.108;6.100;2023-04-01T04:58:57;10.00;;;5.22;;
55641;SDS011;41509;53.108;6.100;2023-04-01T05:03:52;10.30;;;5.53;;
55641;SDS011;41509;53.108;6.100;2023-04-01T05:06:18;8.60;;;5.53;;
55641;SDS011;41509;53.108;6.100;2023-04-01T05:08:46;9.70;;;5.68;;
55641;SDS011;41509;53.108;6.100;2023-04-01T05:11:13;11.82;;;7.00;;
55641;SDS011;41509;53.108;6.100;2023-04-01T05:13:51;12.48;;;6.63;;
55641;SDS011;41509;53.108;6.100;2023-04-01T05:16:18;12.57;;;6.72;;
55641;SDS011;41509;53.108;6.100;2023-04-01T05:18:45;10.50;;;6.15;;
55641;SDS011;41509;53.108;6.100;2023-04-01T05:23:38;12.80;;;6.15;;
55641;SDS011;41509;53.108;6.100;2023-04-01T05:28:31;12.02;;;6.72;;
55641;SDS011;41509;53.108;6.100;2023-04-01T05:31:00;13.13;;;6.80;;
55641;SDS011;41509;53.108;6.100;2023-04-01T05:33:28;13.07;;;6.55;;
55641;SDS011;41509;53.108;6.100;2023-04-01T05:38:20;11.32;;;6.00;;
55641;SDS011;41509;53.108;6.100;2023-04-01T05:40:46;10.80;;;5.97;;
55641;SDS011;41509;53.108;6.100;2023-04-01T05:43:11;11.90;;;6.40;;
55641;SDS011;41509;53.108;6.100;2023-04-01T05:45:37;11.85;;;6.32;;
55641;SDS011;41509;53.108;6.100;2023-04-01T05:48:03;11.30;;;6.20;;
55641;SDS011;41509;53.108;6.100;2023-04-01T05:50:29;14.02;;;6.15;;
55641;SDS011;41509;53.108;6.100;2023-04-01T05:52:54;12.23;;;6.93;;
55641;SDS011;41509;53.108;6.100;2023-04-01T05:55:20;11.27;;;6.10;;
55641;SDS011;41509;53.108;6.100;2023-04-01T05:57:46;14.07;;;6.10;;
55641;SDS011;41509;53.108;6.100;2023-04-01T06:00:13;13.38;;;6.75;;
55641;SDS011;41509;53.108;6.100;2023-04-01T06:05:17;12.32;;;6.28;;
55641;SDS011;41509;53.108;6.100;2023-04-01T06:07:44;13.40;;;6.93;;
55641;SDS011;41509;53.108;6.100;2023-04-01T06:10:15;16.40;;;7.07;;
55641;SDS011;41509;53.108;6.100;2023-04-01T06:12:45;10.80;;;5.93;;
55641;SDS011;41509;53.108;6.100;2023-04-01T06:15:38;14.40;;;7.95;;
55641;SDS011;41509;53.108;6.100;2023-04-01T06:23:44;12.95;;;6.95;;
55641;SDS011;41509;53.108;6.100;2023-04-01T06:32:04;9.85;;;5.65;;
55641;SDS011;41509;53.108;6.100;2023-04-01T06:50:52;9.30;;;4.60;;
55641;SDS011;41509;53.108;6.100;2023-04-01T06:56:20;9.18;;;5.07;;
55641;SDS011;41509;53.108;6.100;2023-04-01T06:59:02;9.15;;;5.05;;
55641;SDS011;41509;53.108;6.100;2023-04-01T07:01:40;9.73;;;5.18;;
55641;SDS011;41509;53.108;6.100;2023-04-01T07:07:10;8.40;;;4.95;;
55641;SDS011;41509;53.108;6.100;2023-04-01T07:09:57;10.57;;;5.47;;
55641;SDS011;41509;53.108;6.100;2023-04-01T07:14:56;8.25;;;4.32;;
55641;SDS011;41509;53.108;6.100;2023-04-01T07:17:30;6.07;;;3.67;;
55641;SDS011;41509;53.108;6.100;2023-04-01T07:20:05;8.32;;;4.50;;
55641;SDS011;41509;53.108;6.100;2023-04-01T07:22:42;7.65;;;3.90;;
55641;SDS011;41509;53.108;6.100;2023-04-01T07:25:14;12.88;;;4.38;;
55641;SDS011;41509;53.108;6.100;2023-04-01T07:27:47;7.93;;;4.72;;
55641;SDS011;41509;53.108;6.100;2023-04-01T07:30:14;10.02;;;4.80;;
55641;SDS011;41509;53.108;6.100;2023-04-01T07:32:51;8.27;;;4.85;;
55641;SDS011;41509;53.108;6.100;2023-04-01T07:35:38;9.02;;;4.93;;
55641;SDS011;41509;53.108;6.100;2023-04-01T07:38:24;8.23;;;4.47;;
55641;SDS011;41509;53.108;6.100;2023-04-01T07:41:12;9.98;;;5.40;;
55641;SDS011;41509;53.108;6.100;2023-04-01T07:43:43;11.85;;;5.63;;
55641;SDS011;41509;53.108;6.100;2023-04-01T08:10:49;14.73;;;7.15;;
55641;SDS011;41509;53.108;6.100;2023-04-01T08:13:45;14.32;;;7.60;;
55641;SDS011;41509;53.108;6.100;2023-04-01T08:16:23;14.50;;;7.53;;
55641;SDS011;41509;53.108;6.100;2023-04-01T08:21:47;15.48;;;8.70;;
55641;SDS011;41509;53.108;6.100;2023-04-01T08:24:27;16.70;;;8.25;;
55641;SDS011;41509;53.108;6.100;2023-04-01T08:26:59;16.60;;;8.32;;
55641;SDS011;41509;53.108;6.100;2023-04-01T08:32:16;11.57;;;5.93;;
55641;SDS011;41509;53.108;6.100;2023-04-01T08:34:47;11.30;;;6.38;;
55641;SDS011;41509;53.108;6.100;2023-04-01T08:37:23;11.75;;;5.93;;
55641;SDS011;41509;53.108;6.100;2023-04-01T08:40:41;10.70;;;5.85;;
55641;SDS011;41509;53.108;6.100;2023-04-01T08:43:16;11.57;;;5.78;;
55641;SDS011;41509;53.108;6.100;2023-04-01T08:51:55;15.20;;;7.63;;
55641;SDS011;41509;53.108;6.100;2023-04-01T09:09:35;12.32;;;6.93;;
55641;SDS011;41509;53.108;6.100;2023-04-01T09:28:38;10.48;;;5.68;;
55641;SDS011;41509;53.108;6.100;2023-04-01T09:42:43;6.47;;;3.30;;
55641;SDS011;41509;53.108;6.100;2023-04-01T09:48:00;6.93;;;4.10;;
55641;SDS011;41509;53.108;6.100;2023-04-01T09:50:46;8.18;;;4.50;;
55641;SDS011;41509;53.108;6.100;2023-04-01T09:56:04;7.20;;;3.60;;
55641;SDS011;41509;53.108;6.100;2023-04-01T10:06:51;5.22;;;2.83;;
55641;SDS011;41509;53.108;6.100;2023-04-01T10:09:41;5.88;;;3.45;;
55641;SDS011;41509;53.108;6.100;2023-04-01T10:32:24;5.07;;;2.35;;
55641;SDS011;41509;53.108;6.100;2023-04-01T10:40:57;4.55;;;2.22;;
55641;SDS011;41509;53.108;6.100;2023-04-01T11:12:34;4.72;;;2.38;;
55641;SDS011;41509;53.108;6.100;2023-04-01T11:26:47;4.28;;;1.58;;
55641;SDS011;41509;53.108;6.100;2023-04-01T11:32:46;2.58;;;1.75;;
55641;SDS011;41509;53.108;6.100;2023-04-01T11:41:03;4.05;;;1.98;;
55641;SDS011;41509;53.108;6.100;2023-04-01T11:46:39;2.60;;;1.30;;
55641;SDS011;41509;53.108;6.100;2023-04-01T11:49:33;2.78;;;1.35;;
55641;SDS011;41509;53.108;6.100;2023-04-01T11:52:26;1.90;;;1.05;;
55641;SDS011;41509;53.108;6.100;2023-04-01T11:55:18;4.30;;;1.55;;
55641;SDS011;41509;53.108;6.100;2023-04-01T11:57:51;3.65;;;1.23;;
55641;SDS011;41509;53.108;6.100;2023-04-01T12:08:46;3.13;;;1.50;;
55641;SDS011;41509;53.108;6.100;2023-04-01T12:14:08;2.00;;;1.23;;
55641;SDS011;41509;53.108;6.100;2023-04-01T12:19:43;1.73;;;1.10;;
55641;SDS011;41509;53.108;6.100;2023-04-01T12:22:41;2.10;;;1.23;;
55641;SDS011;41509;53.108;6.100;2023-04-01T12:25:14;2.65;;;1.40;;
55641;SDS011;41509;53.108;6.100;2023-04-01T12:44:13;2.63;;;1.10;;
55641;SDS011;41509;53.108;6.100;2023-04-01T12:50:00;2.50;;;1.30;;
55641;SDS011;41509;53.108;6.100;2023-04-01T12:57:52;2.40;;;1.30;;
55641;SDS011;41509;53.108;6.100;2023-04-01T13:13:58;1.88;;;1.23;;
55641;SDS011;41509;53.108;6.100;2023-04-01T13:16:31;3.03;;;1.42;;
55641;SDS011;41509;53.108;6.100;2023-04-01T13:25:24;2.28;;;1.20;;
55641;SDS011;41509;53.108;6.100;2023-04-01T13:28:06;2.53;;;1.63;;
55641;SDS011;41509;53.108;6.100;2023-04-01T13:30:35;2.97;;;1.65;;
55641;SDS011;41509;53.108;6.100;2023-04-01T13:33:21;2.50;;;1.45;;
55641;SDS011;41509;53.108;6.100;2023-04-01T13:36:07;4.05;;;1.30;;
55641;SDS011;41509;53.108;6.100;2023-04-01T13:49:45;3.37;;;1.23;;
55641;SDS011;41509;53.108;6.100;2023-04-01T13:52:46;2.60;;;1.35;;
55641;SDS011;41509;53.108;6.100;2023-04-01T14:06:05;3.40;;;1.57;;
55641;SDS011;41509;53.108;6.100;2023-04-01T14:12:02;1.77;;;1.15;;
55641;SDS011;41509;53.108;6.100;2023-04-01T14:17:27;2.58;;;1.23;;
55641;SDS011;41509;53.108;6.100;2023-04-01T14:22:38;2.20;;;1.50;;
55641;SDS011;41509;53.108;6.100;2023-04-01T14:25:25;5.20;;;1.13;;
55641;SDS011;41509;53.108;6.100;2023-04-01T14:28:18;5.93;;;1.10;;
55641;SDS011;41509;53.108;6.100;2023-04-01T14:31:23;1.67;;;1.20;;
55641;SDS011;41509;53.108;6.100;2023-04-01T14:36:46;2.42;;;1.20;;
55641;SDS011;41509;53.108;6.100;2023-04-01T14:47:23;2.13;;;0.93;;
55641;SDS011;41509;53.108;6.100;2023-04-01T14:50:05;1.15;;;0.93;;
55641;SDS011;41509;53.108;6.100;2023-04-01T14:52:36;3.53;;;1.30;;
55641;SDS011;41509;53.108;6.100;2023-04-01T14:55:44;2.65;;;1.27;;
55641;SDS011;41509;53.108;6.100;2023-04-01T14:58:11;2.13;;;1.02;;
55641;SDS011;41509;53.108;6.100;2023-04-01T15:03:29;3.95;;;1.48;;
55641;SDS011;41509;53.108;6.100;2023-04-01T15:09:13;1.90;;;1.13;;
55641;SDS011;41509;53.108;6.100;2023-04-01T15:14:56;1.88;;;1.08;;
55641;SDS011;41509;53.108;6.100;2023-04-01T15:34:28;1.73;;;0.90;;
55641;SDS011;41509;53.108;6.100;2023-04-01T15:39:54;3.17;;;1.27;;
55641;SDS011;41509;53.108;6.100;2023-04-01T15:42:34;3.53;;;1.50;;
55641;SDS011;41509;53.108;6.100;2023-04-01T15:45:34;3.42;;;1.50;;
55641;SDS011;41509;53.108;6.100;2023-04-01T15:53:23;2.30;;;1.20;;
55641;SDS011;41509;53.108;6.100;2023-04-01T16:01:42;2.80;;;1.40;;
55641;SDS011;41509;53.108;6.100;2023-04-01T16:12:50;4.57;;;2.25;;
55641;SDS011;41509;53.108;6.100;2023-04-01T16:20:44;5.85;;;1.75;;
55641;SDS011;41509;53.108;6.100;2023-04-01T16:24:15;4.22;;;2.40;;
55641;SDS011;41509;53.108;6.100;2023-04-01T16:26:23;6.32;;;2.88;;
55641;SDS011;41509;53.108;6.100;2023-04-01T16:29:08;7.67;;;3.33;;
55641;SDS011;41509;53.108;6.100;2023-04-01T16:34:41;6.47;;;3.20;;
55641;SDS011;41509;53.108;6.100;2023-04-01T16:41:03;6.20;;;3.35;;
55641;SDS011;41509;53.108;6.100;2023-04-01T16:47:45;5.93;;;2.22;;
55641;SDS011;41509;53.108;6.100;2023-04-01T16:50:29;5.93;;;2.17;;
55641;SDS011;41509;53.108;6.100;2023-04-01T16:55:49;8.73;;;3.20;;
55641;SDS011;41509;53.108;6.100;2023-04-01T17:01:43;10.50;;;3.40;;
55641;SDS011;41509;53.108;6.100;2023-04-01T17:04:19;7.75;;;3.42;;
55641;SDS011;41509;53.108;6.100;2023-04-01T17:19:52;6.93;;;3.45;;
55641;SDS011;41509;53.108;6.100;2023-04-01T17:31:30;9.07;;;3.45;;
55641;SDS011;41509;53.108;6.100;2023-04-01T17:40:21;9.00;;;3.78;;
55641;SDS011;41509;53.108;6.100;2023-04-01T17:58:47;8.90;;;3.30;;
55641;SDS011;41509;53.108;6.100;2023-04-01T18:09:02;8.95;;;3.35;;
55641;SDS011;41509;53.108;6.100;2023-04-01T18:11:59;6.82;;;2.65;;
55641;SDS011;41509;53.108;6.100;2023-04-01T18:17:02;8.13;;;2.95;;
55641;SDS011;41509;53.108;6.100;2023-04-01T18:19:54;7.80;;;3.28;;
55641;SDS011;41509;53.108;6.100;2023-04-01T18:22:52;12.80;;;4.93;;
55641;SDS011;41509;53.108;6.100;2023-04-01T18:25:29;8.63;;;3.55;;
55641;SDS011;41509;53.108;6.100;2023-04-01T18:28:16;11.50;;;3.83;;
55641;SDS011;41509;53.108;6.100;2023-04-01T18:45:19;6.20;;;3.45;;
55641;SDS011;41509;53.108;6.100;2023-04-01T18:48:15;6.90;;;3.30;;
55641;SDS011;41509;53.108;6.100;2023-04-01T18:50:53;8.57;;;3.25;;
55641;SDS011;41509;53.108;6.100;2023-04-01T18:56:05;9.20;;;2.90;;
55641;SDS011;41509;53.108;6.100;2023-04-01T18:58:45;9.10;;;3.80;;
55641;SDS011;41509;53.108;6.100;2023-04-01T19:06:58;10.23;;;4.55;;
55641;SDS011;41509;53.108;6.100;2023-04-01T19:09:45;15.00;;;5.10;;
55641;SDS011;41509;53.108;6.100;2023-04-01T19:15:07;8.63;;;4.28;;
55641;SDS011;41509;53.108;6.100;2023-04-01T19:18:02;10.23;;;3.80;;
55641;SDS011;41509;53.108;6.100;2023-04-01T19:26:28;6.97;;;3.40;;
55641;SDS011;41509;53.108;6.100;2023-04-01T19:32:04;8.73;;;3.25;;
55641;SDS011;41509;53.108;6.100;2023-04-01T19:34:43;9.00;;;3.00;;
55641;SDS011;41509;53.108;6.100;2023-04-01T19:40:52;7.45;;;3.33;;
55641;SDS011;41509;53.108;6.100;2023-04-01T19:57:53;7.22;;;3.72;;
55641;SDS011;41509;53.108;6.100;2023-04-01T20:00:26;9.00;;;3.42;;
55641;SDS011;41509;53.108;6.100;2023-04-01T20:03:24;10.75;;;4.22;;
55641;SDS011;41509;53.108;6.100;2023-04-01T20:11:58;9.77;;;4.78;;
55641;SDS011;41509;53.108;6.100;2023-04-01T20:14:51;14.13;;;5.63;;
55641;SDS011;41509;53.108;6.100;2023-04-01T20:17:38;9.88;;;3.30;;
55641;SDS011;41509;53.108;6.100;2023-04-01T20:25:26;9.32;;;4.88;;
55641;SDS011;41509;53.108;6.100;2023-04-01T20:31:07;8.10;;;3.47;;
55641;SDS011;41509;53.108;6.100;2023-04-01T20:36:39;7.78;;;3.42;;
55641;SDS011;41509;53.108;6.100;2023-04-01T20:39:11;5.25;;;2.88;;
55641;SDS011;41509;53.108;6.100;2023-04-01T20:42:02;8.40;;;3.33;;
55641;SDS011;41509;53.108;6.100;2023-04-01T20:47:57;10.48;;;3.53;;
55641;SDS011;41509;53.108;6.100;2023-04-01T20:50:39;10.00;;;3.85;;
55641;SDS011;41509;53.108;6.100;2023-04-01T20:53:30;6.07;;;3.70;;
55641;SDS011;41509;53.108;6.100;2023-04-01T21:07:19;12.13;;;4.80;;
55641;SDS011;41509;53.108;6.100;2023-04-01T21:21:50;6.55;;;3.10;;
55641;SDS011;41509;53.108;6.100;2023-04-01T21:38:27;5.43;;;2.63;;
55641;SDS011;41509;53.108;6.100;2023-04-01T21:43:35;5.40;;;2.55;;
55641;SDS011;41509;53.108;6.100;2023-04-01T21:54:22;5.45;;;2.45;;
55641;SDS011;41509;53.108;6.100;2023-04-01T21:59:54;4.23;;;2.03;;
55641;SDS011;41509;53.108;6.100;2023-04-01T22:05:25;11.93;;;3.13;;
55641;SDS011;41509;53.108;6.100;2023-04-01T22:08:02;7.35;;;2.45;;
55641;SDS011;41509;53.108;6.100;2023-04-01T22:11:04;7.32;;;2.42;;
55641;SDS011;41509;53.108;6.100;2023-04-01T22:13:50;6.25;;;2.08;;
55641;SDS011;41509;53.108;6.100;2023-04-01T22:16:30;4.63;;;2.40;;
55641;SDS011;41509;53.108;6.100;2023-04-01T22:19:30;5.32;;;2.67;;
55641;SDS011;41509;53.108;6.100;2023-04-01T22:22:13;11.63;;;2.65;;
55641;SDS011;41509;53.108;6.100;2023-04-01T22:25:06;11.18;;;2.60;;
55641;SDS011;41509;53.108;6.100;2023-04-01T22:27:42;4.93;;;2.30;;
55641;SDS011;41509;53.108;6.100;2023-04-01T22:30:24;5.47;;;2.53;;
55641;SDS011;41509;53.108;6.100;2023-04-01T22:33:21;7.15;;;2.58;;
55641;SDS011;41509;53.108;6.100;2023-04-01T22:38:55;6.53;;;2.55;;
55641;SDS011;41509;53.108;6.100;2023-04-01T22:49:59;7.18;;;2.88;;
55641;SDS011;41509;53.108;6.100;2023-04-01T22:53:37;5.75;;;2.75;;
55641;SDS011;41509;53.108;6.100;2023-04-01T22:56:05;4.70;;;2.47;;
55641;SDS011;41509;53.108;6.100;2023-04-01T22:58:38;6.20;;;2.53;;
55641;SDS011;41509;53.108;6.100;2023-04-01T23:01:12;5.30;;;2.20;;
55641;SDS011;41509;53.108;6.100;2023-04-01T23:03:42;6.78;;;2.25;;
55641;SDS011;41509;53.108;6.100;2023-04-01T23:06:13;5.78;;;2.63;;
55641;SDS011;41509;53.108;6.100;2023-04-01T23:22:36;6.38;;;1.50;;
55641;SDS011;41509;53.108;6.100;2023-04-01T23:25:27;6.80;;;1.90;;
55641;SDS011;41509;53.108;6.100;2023-04-01T23:28:19;5.40;;;1.63;;
55641;SDS011;41509;53.108;6.100;2023-04-01T23:36:02;5.07;;;1.80;;
55641;SDS011;41509;53.108;6.100;2023-04-01T23:38:38;3.15;;;1.63;;
55641;SDS011;41509;53.108;6.100;2023-04-01T23:41:06;7.93;;;2.05;;
55641;SDS011;41509;53.108;6.100;2023-04-01T23:43:41;5.07;;;2.58;;
55641;SDS011;41509;53.108;6.100;2023-04-01T23:46:08;4.88;;;1.90;;
55641;SDS011;41509;53.108;6.100;2023-04-01T23:48:36;6.10;;;2.05;;
55641;SDS011;41509;53.108;6.100;2023-04-01T23:51:19;4.95;;;2.15;;
55641;SDS011;41509;53.108;6.100;2023-04-01T23:53:48;6.07;;;2.00;;
55641;SDS011;41509;53.108;6.100;2023-04-01T23:56:30;4.75;;;2.08;;
55641;SDS011;41509;53.108;6.100;2023-04-01T23:59:03;4.82;;;1.90;;
